Time;durP1;ratioP1;P1;durP2;ratioP2;P2;SDS_P1;SDS_P2;PMS_P1;PMS_P2;Temp;Humidity;BMP_temperature;BMP_pressure;BME280_temperature;BME280_humidity;BME280_pressure;Samples;Min_cycle;Max_cycle;Signal;HPM_P1;HPM_P2
2023/06/21 00:00:39;;;;;;;5.22;4.30;;;19.90;99.90;;;;;;5061028;28;20493;-59
2023/06/21 00:03:04;;;;;;;6.85;4.60;;;20.00;99.90;;;;;;5067394;28;20037;-59
2023/06/21 00:05:31;;;;;;;6.90;4.57;;;19.90;99.90;;;;;;5064002;28;20111;-59
2023/06/21 00:07:56;;;;;;;5.75;4.82;;;19.40;99.90;;;;;;5066955;28;20657;-59
2023/06/21 00:10:25;;;;;;;6.13;4.65;;;19.80;99.90;;;;;;5063598;28;20036;-58
2023/06/21 00:12:54;;;;;;;6.45;4.97;;;19.90;99.90;;;;;;5067515;28;20056;-58
2023/06/21 00:15:20;;;;;;;5.40;4.53;;;19.90;99.90;;;;;;5064784;28;20499;-58
2023/06/21 00:17:47;;;;;;;6.13;4.82;;;19.90;99.90;;;;;;5067788;28;20033;-58
2023/06/21 00:20:13;;;;;;;6.20;4.85;;;19.90;99.90;;;;;;5063619;28;20579;-58
2023/06/21 00:22:39;;;;;;;5.68;5.07;;;19.80;99.90;;;;;;5065840;28;20052;-59
2023/06/21 00:25:07;;;;;;;6.43;5.20;;;19.90;99.90;;;;;;5065455;28;20074;-58
2023/06/21 00:27:33;;;;;;;7.10;5.20;;;19.90;99.90;;;;;;5065050;28;20492;-58
2023/06/21 00:29:58;;;;;;;6.38;4.95;;;19.80;99.90;;;;;;5065080;28;20036;-58
2023/06/21 00:32:24;;;;;;;6.22;4.90;;;19.80;99.90;;;;;;5062949;28;20028;-58
2023/06/21 00:34:49;;;;;;;9.07;5.03;;;19.90;99.90;;;;;;5067096;28;20676;-58
2023/06/21 00:37:15;;;;;;;6.95;5.60;;;19.90;99.90;;;;;;5065849;28;20399;-58
2023/06/21 00:39:41;;;;;;;6.38;5.65;;;19.80;99.90;;;;;;5063839;28;20029;-58
2023/06/21 00:42:08;;;;;;;5.80;5.20;;;19.80;99.90;;;;;;5065629;28;20086;-57
2023/06/21 00:44:33;;;;;;;6.07;5.32;;;19.80;99.90;;;;;;5063164;28;20025;-58
2023/06/21 00:46:59;;;;;;;7.00;5.68;;;19.70;99.90;;;;;;5066531;28;20034;-58
2023/06/21 00:49:25;;;;;;;5.40;4.90;;;19.70;99.90;;;;;;5069312;28;20419;-58
2023/06/21 00:51:58;;;;;;;8.38;5.13;;;19.60;99.90;;;;;;5068032;28;20024;-58
2023/06/21 00:54:32;;;;;;;5.80;5.20;;;19.70;99.90;;;;;;5066414;28;20033;-58
2023/06/21 00:56:59;;;;;;;6.43;5.65;;;19.60;99.90;;;;;;5063762;28;20028;-58
2023/06/21 00:59:28;;;;;;;7.05;5.03;;;19.60;99.90;;;;;;5064580;28;20041;-58
2023/06/21 01:01:57;;;;;;;6.30;5.55;;;19.90;99.90;;;;;;5062017;28;20123;-61
2023/06/21 01:04:29;;;;;;;5.97;5.32;;;19.60;99.90;;;;;;5066626;28;20476;-58
2023/06/21 01:07:28;;;;;;;8.15;5.53;;;19.80;99.90;;;;;;5063936;28;20499;-58
2023/06/21 01:09:54;;;;;;;6.82;5.50;;;19.70;99.90;;;;;;5063360;28;20029;-58
2023/06/21 01:12:49;;;;;;;5.93;4.85;;;19.60;99.90;;;;;;5060511;28;20047;-58
2023/06/21 01:15:25;;;;;;;6.35;5.55;;;19.60;99.90;;;;;;5062833;28;20043;-59
2023/06/21 01:17:53;;;;;;;7.10;5.65;;;19.50;99.90;;;;;;5066815;28;20040;-59
2023/06/21 01:20:25;;;;;;;8.60;6.63;;;19.60;99.90;;;;;;5059976;28;20496;-59
2023/06/21 01:23:20;;;;;;;7.90;6.00;;;19.50;99.90;;;;;;5067363;28;20258;-58
2023/06/21 01:26:32;;;;;;;8.02;5.63;;;19.50;99.90;;;;;;5065127;28;20488;-58
2023/06/21 01:29:27;;;;;;;7.60;5.40;;;19.70;99.90;;;;;;5060487;28;20115;-58
2023/06/21 01:31:55;;;;;;;7.28;5.75;;;19.10;99.90;;;;;;5067751;28;20035;-58
2023/06/21 01:34:21;;;;;;;8.10;5.82;;;19.50;99.90;;;;;;5063325;28;20519;-58
2023/06/21 01:36:47;;;;;;;7.90;5.85;;;19.50;99.90;;;;;;5064611;28;20039;-58
2023/06/21 01:39:12;;;;;;;10.85;5.78;;;19.40;99.90;;;;;;5066320;28;20099;-58
2023/06/21 01:41:38;;;;;;;7.35;6.35;;;19.40;99.90;;;;;;5068654;28;20028;-59
2023/06/21 01:44:07;;;;;;;8.90;5.93;;;19.50;99.90;;;;;;5068196;28;20123;-58
2023/06/21 01:46:33;;;;;;;7.30;5.90;;;19.50;99.90;;;;;;5065212;28;20037;-58
2023/06/21 01:49:00;;;;;;;7.13;5.82;;;19.40;99.90;;;;;;5063210;28;20047;-58
2023/06/21 01:51:26;;;;;;;6.60;5.90;;;19.30;99.90;;;;;;5066649;28;20448;-58
2023/06/21 01:53:53;;;;;;;7.80;6.15;;;19.30;99.90;;;;;;5070705;28;20028;-58
2023/06/21 01:56:19;;;;;;;9.52;6.55;;;19.20;99.90;;;;;;5063665;28;20560;-58
2023/06/21 01:58:46;;;;;;;8.90;6.70;;;19.20;99.90;;;;;;5065994;28;20037;-58
2023/06/21 02:01:12;;;;;;;8.77;6.22;;;19.30;99.90;;;;;;5070286;28;20044;-58
2023/06/21 02:03:41;;;;;;;8.40;6.10;;;18.80;99.90;;;;;;5069267;28;20040;-58
2023/06/21 02:06:08;;;;;;;7.63;6.30;;;19.30;99.90;;;;;;5067050;28;20082;-58
2023/06/21 02:08:35;;;;;;;7.90;6.25;;;19.20;99.90;;;;;;5071649;28;20032;-59
2023/06/21 02:11:01;;;;;;;9.05;6.30;;;19.10;99.90;;;;;;5066264;28;20029;-58
2023/06/21 02:13:28;;;;;;;9.02;6.35;;;19.10;99.90;;;;;;5072297;28;20396;-58
2023/06/21 02:15:54;;;;;;;9.55;6.63;;;19.10;99.90;;;;;;5066158;28;20484;-58
2023/06/21 02:18:23;;;;;;;8.00;6.20;;;19.10;99.90;;;;;;5068991;28;20037;-58
2023/06/21 02:20:50;;;;;;;7.38;6.03;;;19.20;99.90;;;;;;5066294;28;20126;-58
2023/06/21 02:23:16;;;;;;;13.82;6.97;;;19.10;99.90;;;;;;5068324;28;20028;-58
2023/06/21 02:25:41;;;;;;;8.35;6.85;;;19.10;99.90;;;;;;5065970;28;20028;-58
2023/06/21 02:28:07;;;;;;;9.93;6.85;;;19.10;99.90;;;;;;5067205;28;20535;-58
2023/06/21 02:30:32;;;;;;;11.55;7.00;;;19.10;99.90;;;;;;5064741;28;20365;-58
2023/06/21 02:32:58;;;;;;;11.57;6.70;;;19.20;99.90;;;;;;5064630;28;20489;-58
2023/06/21 02:35:24;;;;;;;8.85;7.03;;;19.10;99.90;;;;;;5067823;28;20091;-58
2023/06/21 02:37:50;;;;;;;9.02;6.93;;;19.20;99.90;;;;;;5066724;28;20052;-58
2023/06/21 02:40:16;;;;;;;10.43;7.00;;;19.30;99.90;;;;;;5069665;28;20059;-58
2023/06/21 02:42:41;;;;;;;10.95;6.88;;;19.20;99.90;;;;;;5068450;28;20544;-58
2023/06/21 02:45:10;;;;;;;9.98;7.45;;;18.60;99.90;;;;;;5074017;28;20028;-58
2023/06/21 02:47:36;;;;;;;9.63;7.47;;;19.30;99.90;;;;;;5068974;28;20029;-58
2023/06/21 02:50:03;;;;;;;9.23;7.38;;;19.20;99.90;;;;;;5073764;28;20032;-58
2023/06/21 02:52:29;;;;;;;9.63;6.82;;;19.20;99.90;;;;;;5077225;28;20442;-58
2023/06/21 02:54:55;;;;;;;10.50;7.63;;;19.20;99.90;;;;;;5067200;28;20037;-58
2023/06/21 02:57:21;;;;;;;12.25;7.97;;;19.30;99.90;;;;;;5064006;28;20034;-58
2023/06/21 02:59:49;;;;;;;10.75;7.68;;;19.20;99.90;;;;;;5070500;28;20033;-58
2023/06/21 03:02:18;;;;;;;11.30;6.97;;;19.20;99.90;;;;;;5067393;28;20025;-58
2023/06/21 03:04:44;;;;;;;9.65;7.80;;;19.10;99.90;;;;;;5065284;28;20036;-58
2023/06/21 03:07:09;;;;;;;9.02;7.40;;;19.00;99.90;;;;;;5067535;28;20289;-58
2023/06/21 03:09:35;;;;;;;9.65;7.63;;;19.10;99.90;;;;;;5067773;28;20524;-58
2023/06/21 03:12:07;;;;;;;8.90;7.55;;;19.10;99.90;;;;;;5063810;28;20035;-58
2023/06/21 03:14:37;;;;;;;12.55;8.32;;;19.00;99.90;;;;;;5062649;28;20024;-58
2023/06/21 03:17:04;;;;;;;9.02;7.20;;;19.10;99.90;;;;;;5067579;28;20578;-58
2023/06/21 03:19:30;;;;;;;10.93;7.78;;;19.10;99.90;;;;;;5064525;28;20025;-58
2023/06/21 03:21:55;;;;;;;8.75;7.32;;;18.90;99.90;;;;;;5066048;28;20028;-58
2023/06/21 03:24:21;;;;;;;11.02;8.18;;;18.80;99.90;;;;;;5065130;28;20045;-58
2023/06/21 03:26:47;;;;;;;15.20;8.13;;;18.90;99.90;;;;;;5065095;28;20034;-59
2023/06/21 03:29:12;;;;;;;9.60;7.85;;;19.00;99.90;;;;;;5065791;28;20366;-58
2023/06/21 03:31:38;;;;;;;12.35;8.50;;;18.90;99.90;;;;;;5060825;28;20517;-58
2023/06/21 03:34:04;;;;;;;12.38;7.90;;;18.80;99.90;;;;;;5066830;28;20040;-58
2023/06/21 03:36:29;;;;;;;12.38;8.60;;;19.00;99.90;;;;;;5067342;28;20565;-59
2023/06/21 03:38:55;;;;;;;11.98;8.73;;;18.80;99.90;;;;;;5065047;28;20033;-58
2023/06/21 03:41:20;;;;;;;12.15;7.93;;;18.80;99.90;;;;;;5066344;28;20040;-58
2023/06/21 03:43:46;;;;;;;11.35;8.63;;;19.00;99.90;;;;;;5064511;28;20525;-61
2023/06/21 03:46:12;;;;;;;13.48;7.72;;;18.90;99.90;;;;;;5062473;28;20056;-60
2023/06/21 03:48:37;;;;;;;12.40;8.60;;;19.00;99.90;;;;;;5064194;28;20033;-60
2023/06/21 03:51:03;;;;;;;13.25;8.65;;;19.20;99.90;;;;;;5065401;28;20500;-60
2023/06/21 03:53:28;;;;;;;10.65;8.57;;;19.10;99.90;;;;;;5064448;28;20044;-60
2023/06/21 03:55:54;;;;;;;11.05;8.90;;;19.10;99.90;;;;;;5066252;28;20041;-60
2023/06/21 03:58:19;;;;;;;11.60;8.80;;;19.10;99.90;;;;;;5062093;28;20114;-60
2023/06/21 04:00:45;;;;;;;9.50;7.70;;;19.00;99.90;;;;;;5065127;28;20044;-60
2023/06/21 04:03:10;;;;;;;10.82;9.05;;;18.90;99.90;;;;;;5062147;28;20114;-60
2023/06/21 04:05:36;;;;;;;10.43;8.98;;;19.00;99.90;;;;;;5063073;28;20036;-60
2023/06/21 04:08:02;;;;;;;10.43;9.07;;;19.00;99.90;;;;;;5067741;28;20083;-60
2023/06/21 04:10:27;;;;;;;11.25;8.82;;;19.10;99.90;;;;;;5066839;28;20036;-60
2023/06/21 04:12:53;;;;;;;10.70;8.63;;;19.20;99.90;;;;;;5064759;28;20036;-60
2023/06/21 04:15:20;;;;;;;11.68;8.77;;;19.10;99.90;;;;;;5069576;28;20430;-60
2023/06/21 04:17:46;;;;;;;15.35;10.05;;;19.10;99.90;;;;;;5069231;28;20086;-60
2023/06/21 04:20:13;;;;;;;10.85;9.00;;;19.20;99.90;;;;;;5064501;28;20040;-60
2023/06/21 04:22:40;;;;;;;11.55;9.60;;;19.20;99.90;;;;;;5066564;28;20416;-59
2023/06/21 04:25:07;;;;;;;12.85;10.05;;;19.20;99.90;;;;;;5065521;28;20492;-60
2023/06/21 04:27:32;;;;;;;11.00;9.52;;;19.70;99.90;;;;;;5069065;28;20054;-60
2023/06/21 04:29:59;;;;;;;10.95;9.70;;;19.50;99.90;;;;;;5063136;28;20444;-60
2023/06/21 04:32:31;;;;;;;11.90;9.75;;;19.60;99.90;;;;;;5065478;28;20396;-60
2023/06/21 04:34:59;;;;;;;11.77;10.13;;;19.70;99.90;;;;;;5060424;28;20032;-61
2023/06/21 04:37:25;;;;;;;12.32;9.98;;;19.60;99.90;;;;;;5062865;28;20033;-60
2023/06/21 04:39:52;;;;;;;11.25;9.65;;;19.50;99.90;;;;;;5063638;28;20644;-60
2023/06/21 04:42:20;;;;;;;12.50;9.68;;;19.70;99.90;;;;;;5061890;28;20811;-60
2023/06/21 04:44:49;;;;;;;15.25;10.18;;;19.90;99.90;;;;;;5064001;28;20476;-60
2023/06/21 04:47:16;;;;;;;12.32;10.55;;;19.80;99.90;;;;;;5067175;28;20448;-60
2023/06/21 04:49:42;;;;;;;11.57;10.10;;;;;;;;;;5066973;28;20059;-60
2023/06/21 04:52:09;;;;;;;17.02;10.10;;;19.90;99.90;;;;;;5060383;28;20411;-60
2023/06/21 04:54:36;;;;;;;14.45;10.35;;;20.00;99.90;;;;;;5056962;28;20047;-60
2023/06/21 04:57:05;;;;;;;11.52;10.32;;;19.90;99.90;;;;;;5067469;28;20070;-60
2023/06/21 04:59:30;;;;;;;12.02;10.20;;;19.90;99.90;;;;;;5061674;28;20369;-60
2023/06/21 05:01:56;;;;;;;14.20;9.95;;;19.90;99.90;;;;;;5083622;28;20039;-60
2023/06/21 05:04:22;;;;;;;11.75;10.02;;;20.10;99.90;;;;;;5066363;28;20044;-60
2023/06/21 05:06:48;;;;;;;14.65;10.90;;;19.70;99.90;;;;;;5064721;28;20040;-60
2023/06/21 05:09:13;;;;;;;13.57;10.95;;;20.00;99.90;;;;;;5064299;28;20044;-60
2023/06/21 05:11:39;;;;;;;13.32;10.82;;;20.10;99.90;;;;;;5072288;28;20032;-60
2023/06/21 05:14:05;;;;;;;12.98;11.45;;;20.10;99.90;;;;;;5056511;28;20035;-60
2023/06/21 05:16:30;;;;;;;13.65;11.90;;;20.30;99.90;;;;;;5067916;28;20033;-60
2023/06/21 05:18:56;;;;;;;14.75;11.70;;;20.50;99.90;;;;;;5068006;28;20084;-60
2023/06/21 05:21:21;;;;;;;14.57;11.55;;;20.50;99.90;;;;;;5065077;28;20044;-60
2023/06/21 05:23:47;;;;;;;13.68;11.98;;;20.30;99.90;;;;;;5063000;28;20037;-60
2023/06/21 05:26:13;;;;;;;16.17;12.23;;;20.60;99.90;;;;;;5068449;28;20653;-61
2023/06/21 05:28:38;;;;;;;18.90;13.05;;;20.90;99.90;;;;;;5080682;28;20524;-61
2023/06/21 05:31:04;;;;;;;16.48;13.05;;;20.90;99.90;;;;;;5084958;28;20036;-60
2023/06/21 05:33:29;;;;;;;17.05;13.55;;;20.80;99.90;;;;;;5072263;28;20632;-61
2023/06/21 05:35:55;;;;;;;18.65;13.90;;;20.70;99.90;;;;;;5073804;28;20028;-61
2023/06/21 05:38:20;;;;;;;18.42;13.68;;;20.70;99.90;;;;;;5054788;28;20032;-61
2023/06/21 05:40:46;;;;;;;15.95;13.73;;;20.90;99.90;;;;;;5066535;28;20135;-61
2023/06/21 05:43:11;;;;;;;16.67;13.93;;;20.90;99.90;;;;;;5065539;28;20043;-61
2023/06/21 05:45:40;;;;;;;15.25;13.63;;;20.70;99.90;;;;;;5060864;28;20044;-61
2023/06/21 05:48:06;;;;;;;14.20;12.75;;;20.70;99.90;;;;;;5073709;28;20101;-61
2023/06/21 05:50:32;;;;;;;18.67;14.20;;;20.80;99.90;;;;;;5069478;28;20147;-61
2023/06/21 05:52:58;;;;;;;19.02;15.13;;;21.00;99.90;;;;;;5058418;28;20030;-61
2023/06/21 05:55:24;;;;;;;16.83;14.52;;;21.30;99.90;;;;;;5063066;28;20147;-61
2023/06/21 05:57:50;;;;;;;15.73;14.07;;;21.20;99.90;;;;;;5060975;28;20121;-60
2023/06/21 06:00:16;;;;;;;16.20;14.52;;;21.30;99.90;;;;;;5064938;28;20037;-60
2023/06/21 06:02:42;;;;;;;18.73;14.70;;;21.20;99.90;;;;;;5057904;28;20116;-61
2023/06/21 06:05:08;;;;;;;19.67;15.43;;;21.60;99.90;;;;;;5071576;28;20191;-61
2023/06/21 06:07:34;;;;;;;21.55;15.68;;;21.50;99.90;;;;;;5079964;28;20467;-61
2023/06/21 06:09:59;;;;;;;19.50;14.75;;;21.40;99.90;;;;;;5078809;28;20021;-61
2023/06/21 06:12:25;;;;;;;19.58;16.33;;;21.80;99.90;;;;;;5076452;28;20036;-61
2023/06/21 06:14:51;;;;;;;18.75;14.85;;;21.70;99.90;;;;;;5074976;28;20054;-61
2023/06/21 06:17:17;;;;;;;18.35;15.93;;;21.70;99.90;;;;;;5069294;28;20033;-61
2023/06/21 06:19:42;;;;;;;21.73;15.57;;;21.70;99.90;;;;;;5081509;28;20033;-61
2023/06/21 06:22:08;;;;;;;22.75;16.10;;;21.80;99.90;;;;;;5058319;28;20040;-62
2023/06/21 06:24:33;;;;;;;43.30;34.88;;;21.80;99.90;;;;;;5065177;28;20037;-61
2023/06/21 06:26:59;;;;;;;16.75;14.93;;;21.60;99.90;;;;;;5062886;28;20443;-61
2023/06/21 06:29:25;;;;;;;20.92;15.93;;;21.90;99.90;;;;;;5061248;28;20048;-61
2023/06/21 06:31:51;;;;;;;19.60;15.82;;;21.80;99.90;;;;;;5066144;28;20041;-62
2023/06/21 06:34:17;;;;;;;22.60;16.52;;;21.80;99.90;;;;;;5065223;28;20029;-61
2023/06/21 06:36:43;;;;;;;17.45;15.25;;;21.80;99.90;;;;;;5064764;28;20033;-62
2023/06/21 06:39:09;;;;;;;18.95;15.25;;;22.60;99.90;;;;;;5070318;28;20047;-59
2023/06/21 06:41:34;;;;;;;18.23;16.30;;;22.00;99.90;;;;;;5070874;28;20476;-60
2023/06/21 06:44:00;;;;;;;18.50;16.02;;;22.20;99.90;;;;;;5067430;28;20047;-60
2023/06/21 06:46:26;;;;;;;20.77;16.92;;;22.10;99.90;;;;;;5066971;28;20052;-60
2023/06/21 06:48:51;;;;;;;18.33;16.40;;;22.00;99.90;;;;;;5062711;28;20392;-61
2023/06/21 06:51:17;;;;;;;21.75;17.45;;;22.10;99.90;;;;;;5065504;28;20036;-59
2023/06/21 06:53:42;;;;;;;20.02;17.65;;;22.10;99.90;;;;;;5074100;28;20054;-60
2023/06/21 06:56:08;;;;;;;20.50;17.38;;;22.10;99.90;;;;;;5078978;28;20038;-59
2023/06/21 06:58:35;;;;;;;21.67;17.67;;;22.10;99.90;;;;;;5071879;28;20093;-59
2023/06/21 07:01:03;;;;;;;21.42;18.17;;;22.70;99.90;;;;;;5070362;28;20064;-59
2023/06/21 07:03:29;;;;;;;22.35;18.25;;;22.00;99.90;;;;;;5066289;28;20531;-59
2023/06/21 07:05:55;;;;;;;19.02;16.95;;;22.10;99.90;;;;;;5066440;28;20928;-60
2023/06/21 07:08:20;;;;;;;22.10;17.52;;;22.20;99.90;;;;;;5066258;28;20112;-59
2023/06/21 07:10:46;;;;;;;18.88;17.00;;;22.20;99.90;;;;;;5061329;28;20408;-60
2023/06/21 07:13:12;;;;;;;21.27;18.50;;;22.20;99.90;;;;;;5064772;28;20135;-59
2023/06/21 07:15:37;;;;;;;23.92;18.23;;;22.30;99.90;;;;;;5065965;28;20028;-59
2023/06/21 07:18:03;;;;;;;21.35;18.52;;;22.10;99.90;;;;;;5066323;28;20037;-60
2023/06/21 07:20:30;;;;;;;19.92;17.83;;;22.10;99.90;;;;;;5068199;28;20817;-59
2023/06/21 07:22:56;;;;;;;22.48;19.63;;;22.20;99.90;;;;;;5067605;28;20079;-59
2023/06/21 07:25:22;;;;;;;21.45;19.13;;;22.30;99.90;;;;;;5060947;28;20048;-60
2023/06/21 07:27:48;;;;;;;20.38;18.13;;;22.40;99.90;;;;;;5068734;28;20042;-59
2023/06/21 07:30:14;;;;;;;25.05;19.55;;;22.40;99.90;;;;;;5065275;28;20029;-59
2023/06/21 07:32:40;;;;;;;23.40;19.20;;;22.50;99.90;;;;;;5056491;28;20025;-59
2023/06/21 07:35:06;;;;;;;21.80;19.50;;;22.40;99.90;;;;;;5064664;28;20131;-59
2023/06/21 07:37:31;;;;;;;19.67;17.60;;;22.40;99.90;;;;;;5062349;28;20439;-59
2023/06/21 07:39:57;;;;;;;28.80;22.00;;;22.80;99.90;;;;;;5066338;28;20454;-56
2023/06/21 07:42:23;;;;;;;24.27;19.98;;;22.70;99.90;;;;;;5064687;28;20426;-60
2023/06/21 07:44:53;;;;;;;24.15;18.77;;;22.90;99.90;;;;;;5078549;28;20614;-59
2023/06/21 07:47:19;;;;;;;20.52;18.13;;;22.80;99.90;;;;;;5064889;28;20037;-59
2023/06/21 07:49:44;;;;;;;19.63;17.73;;;22.80;99.90;;;;;;5060664;28;20149;-59
2023/06/21 07:52:11;;;;;;;19.92;17.65;;;22.70;99.90;;;;;;5060825;28;20078;-59
2023/06/21 07:54:37;;;;;;;19.48;17.42;;;22.90;99.90;;;;;;5066382;28;20460;-60
2023/06/21 07:57:03;;;;;;;46.13;41.17;;;22.80;99.90;;;;;;5059676;28;20041;-59
2023/06/21 07:59:29;;;;;;;19.70;15.52;;;22.80;99.90;;;;;;5064725;28;20052;-59
2023/06/21 08:01:55;;;;;;;16.02;13.95;;;22.80;99.90;;;;;;5065385;28;20048;-59
2023/06/21 08:04:21;;;;;;;18.42;13.68;;;22.60;99.90;;;;;;5064800;28;22994;-60
2023/06/21 08:06:46;;;;;;;16.75;14.90;;;23.10;99.90;;;;;;5069064;28;20051;-59
2023/06/21 08:09:12;;;;;;;17.33;15.45;;;23.30;99.90;;;;;;5079153;28;20047;-60
2023/06/21 08:11:38;;;;;;;36.75;30.92;;;23.20;99.90;;;;;;5071409;28;20039;-61
2023/06/21 08:14:03;;;;;;;17.88;15.98;;;23.00;99.90;;;;;;5063100;28;20044;-58
2023/06/21 08:16:29;;;;;;;19.88;17.75;;;22.90;99.90;;;;;;5058113;28;20033;-59
2023/06/21 08:18:54;;;;;;;18.27;14.43;;;23.20;99.90;;;;;;5074296;28;20510;-59
2023/06/21 08:21:20;;;;;;;15.63;13.95;;;23.60;99.90;;;;;;5064538;28;20040;-59
2023/06/21 08:23:46;;;;;;;14.85;13.32;;;23.70;99.90;;;;;;5065618;28;20130;-60
2023/06/21 08:26:11;;;;;;;15.55;12.77;;;23.30;99.90;;;;;;5061307;28;20064;-60
2023/06/21 08:28:37;;;;;;;15.00;13.10;;;23.70;99.90;;;;;;5067856;28;20041;-59
2023/06/21 08:31:03;;;;;;;15.93;13.05;;;23.70;99.90;;;;;;5066636;28;20040;-59
2023/06/21 08:33:28;;;;;;;16.90;13.10;;;23.70;99.90;;;;;;5064545;28;20484;-59
2023/06/21 08:35:54;;;;;;;13.98;12.50;;;23.60;99.90;;;;;;5068562;28;20032;-59
2023/06/21 08:38:19;;;;;;;15.38;11.80;;;24.00;99.90;;;;;;5060813;28;20044;-60
2023/06/21 08:40:46;;;;;;;12.68;11.07;;;24.40;99.90;;;;;;5065713;28;20044;-59
2023/06/21 08:43:12;;;;;;;12.13;10.88;;;24.30;99.90;;;;;;5057943;28;20587;-59
2023/06/21 08:45:38;;;;;;;14.57;12.15;;;24.30;99.90;;;;;;5062092;28;20033;-59
2023/06/21 08:48:06;;;;;;;12.27;11.02;;;24.20;99.90;;;;;;5061843;28;20040;-59
2023/06/21 08:50:35;;;;;;;13.38;11.10;;;24.10;99.90;;;;;;5063492;28;20059;-59
2023/06/21 08:53:06;;;;;;;14.98;11.00;;;23.90;99.90;;;;;;5064257;28;20039;-59
2023/06/21 08:55:35;;;;;;;14.27;10.30;;;24.00;99.90;;;;;;5064077;28;20131;-59
2023/06/21 08:58:08;;;;;;;13.02;11.80;;;24.00;99.90;;;;;;5059520;28;20055;-59
2023/06/21 09:00:41;;;;;;;14.10;10.52;;;24.10;99.90;;;;;;5068697;28;20028;-58
2023/06/21 09:03:32;;;;;;;11.63;10.43;;;24.10;99.90;;;;;;5070664;28;20043;-58
2023/06/21 09:06:07;;;;;;;12.35;9.70;;;23.90;99.90;;;;;;5062408;28;20052;-59
2023/06/21 09:08:34;;;;;;;11.40;10.18;;;24.10;99.90;;;;;;5065435;28;20091;-59
2023/06/21 09:11:00;;;;;;;13.23;10.88;;;24.00;99.90;;;;;;5064345;28;20041;-59
2023/06/21 09:13:27;;;;;;;12.70;11.18;;;24.00;99.90;;;;;;5061127;28;20032;-58
2023/06/21 09:15:54;;;;;;;13.25;10.85;;;23.90;99.90;;;;;;5067595;28;20063;-59
2023/06/21 09:18:20;;;;;;;12.02;10.73;;;24.00;99.90;;;;;;5059513;28;20025;-58
2023/06/21 09:20:48;;;;;;;14.48;11.00;;;24.20;99.90;;;;;;5061075;28;20047;-59
2023/06/21 09:23:14;;;;;;;13.75;10.88;;;24.40;99.90;;;;;;5064318;28;20024;-58
2023/06/21 09:25:39;;;;;;;12.85;11.50;;;24.50;99.90;;;;;;5062833;28;20039;-59
2023/06/21 09:28:05;;;;;;;14.15;12.45;;;24.50;99.90;;;;;;5055685;28;20040;-59
2023/06/21 09:30:31;;;;;;;17.70;13.07;;;24.40;99.90;;;;;;5062864;28;20036;-60
2023/06/21 09:32:57;;;;;;;26.00;17.17;;;24.30;99.90;;;;;;5064148;28;20071;-61
2023/06/21 09:35:23;;;;;;;16.60;13.38;;;24.20;99.90;;;;;;5064821;28;20032;-59
2023/06/21 09:37:49;;;;;;;14.80;13.25;;;24.20;99.90;;;;;;5063818;28;20028;-60
2023/06/21 09:40:14;;;;;;;17.08;13.13;;;24.20;99.90;;;;;;5064613;28;20044;-60
2023/06/21 09:42:41;;;;;;;13.00;11.70;;;24.30;99.90;;;;;;5059497;28;20071;-59
2023/06/21 09:45:11;;;;;;;13.60;10.73;;;24.50;99.90;;;;;;5068401;28;20422;-60
2023/06/21 09:47:40;;;;;;;12.80;9.90;;;24.60;99.90;;;;;;5068022;28;20036;-59
2023/06/21 09:50:07;;;;;;;15.52;11.77;;;24.60;99.90;;;;;;5064637;28;20036;-59
2023/06/21 09:52:33;;;;;;;17.77;12.30;;;24.80;99.90;;;;;;5061737;28;20036;-59
2023/06/21 09:54:59;;;;;;;12.18;10.02;;;24.80;99.90;;;;;;5057094;28;20048;-60
2023/06/21 09:57:32;;;;;;;14.30;11.27;;;24.70;99.90;;;;;;5054115;28;20683;-61
2023/06/21 10:00:05;;;;;;;13.00;11.35;;;24.80;99.90;;;;;;5058848;28;20021;-60
2023/06/21 10:02:38;;;;;;;12.27;11.02;;;24.90;99.90;;;;;;5059826;28;20033;-59
2023/06/21 10:05:05;;;;;;;15.98;12.68;;;25.70;99.90;;;;;;5054758;28;20040;-59
2023/06/21 10:07:30;;;;;;;12.73;11.23;;;25.30;99.90;;;;;;5057153;28;20033;-59
2023/06/21 10:09:56;;;;;;;12.55;11.35;;;25.10;99.90;;;;;;5069902;28;20029;-61
2023/06/21 10:12:22;;;;;;;14.00;12.23;;;25.30;99.90;;;;;;5064630;28;20400;-60
2023/06/21 10:14:50;;;;;;;12.88;11.63;;;25.60;99.90;;;;;;5058648;28;20059;-59
2023/06/21 10:17:16;;;;;;;13.68;12.23;;;25.00;99.90;;;;;;5058381;28;20029;-59
2023/06/21 10:19:44;;;;;;;14.13;12.63;;;24.90;99.90;;;;;;5055699;28;20117;-60
2023/06/21 10:22:19;;;;;;;13.88;12.48;;;24.80;99.90;;;;;;5060349;28;20449;-60
2023/06/21 10:24:50;;;;;;;13.98;12.50;;;24.90;99.90;;;;;;5063060;28;20036;-60
2023/06/21 10:27:20;;;;;;;16.13;14.50;;;25.00;99.90;;;;;;5060351;28;20457;-59
2023/06/21 10:29:52;;;;;;;13.88;12.50;;;25.00;99.90;;;;;;5063031;28;20028;-60
2023/06/21 10:32:19;;;;;;;12.15;9.63;;;25.00;99.90;;;;;;5078558;28;20041;-59
2023/06/21 10:34:56;;;;;;;8.80;7.63;;;25.20;99.90;;;;;;5069637;28;20036;-60
2023/06/21 10:37:50;;;;;;;7.38;6.47;;;25.30;99.90;;;;;;5066117;28;20524;-60
2023/06/21 10:40:17;;;;;;;8.93;7.03;;;25.50;99.90;;;;;;5062935;28;20044;-60
2023/06/21 10:42:44;;;;;;;8.77;7.38;;;25.50;99.90;;;;;;5075520;28;20050;-60
2023/06/21 10:45:10;;;;;;;9.55;7.10;;;25.70;99.90;;;;;;5060063;28;20032;-60
2023/06/21 10:47:37;;;;;;;11.43;7.75;;;25.80;99.90;;;;;;5064468;28;20055;-59
2023/06/21 10:50:05;;;;;;;7.82;7.03;;;25.90;99.90;;;;;;5061243;28;21180;-60
2023/06/21 10:52:30;;;;;;;13.00;8.30;;;26.00;99.90;;;;;;5063988;28;20037;-60
2023/06/21 10:54:57;;;;;;;9.85;8.80;;;26.10;99.90;;;;;;5063685;28;20035;-59
2023/06/21 10:57:25;;;;;;;12.30;8.27;;;26.00;99.90;;;;;;5059715;28;20087;-59
2023/06/21 10:59:53;;;;;;;10.98;8.00;;;25.70;99.90;;;;;;5073084;28;20029;-60
2023/06/21 11:02:18;;;;;;;8.35;6.90;;;25.50;99.90;;;;;;5077182;28;20044;-59
2023/06/21 11:05:38;;;;;;;8.60;7.40;;;25.70;99.90;;;;;;5067253;28;20032;-59
2023/06/21 11:08:05;;;;;;;9.02;8.07;;;25.60;99.90;;;;;;5022014;28;20056;-59
2023/06/21 11:10:50;;;;;;;9.48;7.78;;;25.60;99.90;;;;;;5055248;28;20511;-59
2023/06/21 11:13:35;;;;;;;8.38;7.45;;;25.50;99.90;;;;;;5063627;28;20047;-59
2023/06/21 11:16:15;;;;;;;8.85;7.90;;;25.30;99.90;;;;;;5064259;28;20431;-59
2023/06/21 11:18:59;;;;;;;10.73;7.43;;;25.50;99.90;;;;;;5068085;28;20506;-59
2023/06/21 11:21:44;;;;;;;9.35;6.47;;;25.50;99.90;;;;;;5061417;28;21115;-60
2023/06/21 11:24:20;;;;;;;8.55;6.20;;;25.60;99.90;;;;;;5063947;28;20040;-59
2023/06/21 11:27:07;;;;;;;6.47;5.85;;;25.80;99.90;;;;;;5063308;27;20040;-59
2023/06/21 11:29:35;;;;;;;6.40;5.72;;;25.70;99.90;;;;;;5070418;28;20044;-60
2023/06/21 11:32:11;;;;;;;7.85;6.32;;;25.80;99.90;;;;;;5069933;28;20028;-60
2023/06/21 11:34:37;;;;;;;10.35;7.40;;;26.10;99.90;;;;;;5057873;28;20044;-60
2023/06/21 11:37:41;;;;;;;10.30;6.95;;;26.30;99.90;;;;;;5065447;28;20029;-59
2023/06/21 11:40:18;;;;;;;;;;;26.60;99.90;;;;;;5063775;28;20123;-59
2023/06/21 11:42:48;;;;;;;7.90;6.10;;;26.90;99.90;;;;;;5070345;28;19960;-59
2023/06/21 11:45:33;;;;;;;8.95;7.30;;;26.60;99.90;;;;;;5070746;28;20083;-60
2023/06/21 11:47:59;;;;;;;8.90;7.00;;;26.60;99.90;;;;;;5067627;28;20636;-59
2023/06/21 11:50:35;;;;;;;7.78;6.38;;;26.60;99.90;;;;;;5068643;28;20032;-59
2023/06/21 11:53:23;;;;;;;7.07;6.38;;;26.70;99.90;;;;;;5066740;28;20508;-59
2023/06/21 11:55:51;;;;;;;7.95;6.55;;;26.60;99.90;;;;;;5062622;28;20029;-59
2023/06/21 11:58:17;;;;;;;11.23;6.18;;;26.30;99.90;;;;;;5072051;28;20044;-59
2023/06/21 12:00:45;;;;;;;6.20;5.60;;;25.90;99.90;;;;;;5062285;28;20060;-59
2023/06/21 12:03:11;;;;;;;7.43;6.63;;;25.90;99.90;;;;;;5068609;28;20063;-59
2023/06/21 12:05:49;;;;;;;10.00;8.18;;;26.10;99.90;;;;;;5061112;27;20123;-59
2023/06/21 12:08:19;;;;;;;6.97;6.03;;;25.90;99.90;;;;;;5068611;28;20037;-59
2023/06/21 12:10:45;;;;;;;5.60;4.90;;;26.20;99.90;;;;;;5069890;28;20036;-59
2023/06/21 12:13:13;;;;;;;6.15;4.88;;;26.20;99.90;;;;;;5069545;28;20032;-59
2023/06/21 12:15:44;;;;;;;5.47;4.97;;;26.20;99.90;;;;;;5064947;28;20056;-59
2023/06/21 12:18:12;;;;;;;6.93;6.22;;;26.10;99.90;;;;;;5065691;28;20040;-59
2023/06/21 12:20:38;;;;;;;7.13;6.43;;;26.50;99.90;;;;;;5064782;28;20094;-59
2023/06/21 12:23:08;;;;;;;11.70;8.63;;;26.70;99.90;;;;;;5065694;28;20033;-60
2023/06/21 12:25:44;;;;;;;10.15;9.15;;;26.60;99.90;;;;;;5061385;28;20061;-58
2023/06/21 12:28:14;;;;;;;9.68;8.18;;;26.30;99.90;;;;;;5061395;28;20064;-58
2023/06/21 12:30:56;;;;;;;8.82;7.93;;;26.10;99.90;;;;;;5061101;28;20036;-59
2023/06/21 12:33:32;;;;;;;8.13;7.38;;;26.40;99.90;;;;;;5063033;28;20550;-59
2023/06/21 12:36:16;;;;;;;9.60;7.95;;;26.20;99.90;;;;;;5059994;28;20039;-57
2023/06/21 12:38:50;;;;;;;10.50;7.35;;;26.40;99.90;;;;;;5064097;28;20044;-59
2023/06/21 12:41:18;;;;;;;8.15;6.47;;;26.50;99.90;;;;;;5064403;28;20093;-59